createdAt,value
2022-12-03T00:01:02.523Z,15.20
2022-12-03T00:03:29.598Z,15.20
2022-12-03T00:05:56.643Z,15.20
2022-12-03T00:08:23.424Z,15.20
2022-12-03T00:10:50.124Z,15.20
2022-12-03T00:13:16.771Z,15.10
2022-12-03T00:15:43.465Z,15.10
2022-12-03T00:18:10.181Z,15.10
2022-12-03T00:20:36.895Z,15.10
2022-12-03T00:23:03.653Z,15.10
2022-12-03T00:25:30.477Z,15.10
2022-12-03T00:27:57.135Z,15.10
2022-12-03T00:30:23.793Z,15.10
2022-12-03T00:32:50.505Z,15.10
2022-12-03T00:35:17.226Z,15.20
2022-12-03T00:37:43.893Z,15.20
2022-12-03T00:40:11.932Z,15.30
2022-12-03T00:42:38.675Z,15.30
2022-12-03T00:45:05.943Z,15.30
2022-12-03T00:47:32.668Z,15.30
2022-12-03T00:49:59.339Z,15.30
2022-12-03T00:52:26.557Z,15.30
2022-12-03T00:54:53.661Z,15.20
2022-12-03T00:57:20.586Z,15.20
2022-12-03T00:59:47.227Z,15.20
2022-12-03T01:02:14.072Z,15.20
2022-12-03T01:04:40.929Z,15.20
2022-12-03T01:07:07.726Z,15.20
2022-12-03T01:09:34.499Z,15.30
2022-12-03T01:12:01.178Z,15.20
2022-12-03T01:14:27.863Z,15.20
2022-12-03T01:16:54.613Z,15.30
2022-12-03T01:19:21.347Z,15.30
2022-12-03T01:21:50.326Z,15.20
2022-12-03T01:24:18.342Z,15.20
2022-12-03T01:26:45.362Z,15.20
2022-12-03T01:29:12.181Z,15.20
2022-12-03T01:31:57.442Z,15.20
2022-12-03T01:34:24.117Z,15.20
2022-12-03T01:36:52.468Z,15.30
2022-12-03T01:39:19.433Z,15.20
2022-12-03T01:41:48.320Z,15.20
2022-12-03T01:44:33.006Z,15.20
2022-12-03T01:47:03.875Z,15.10
2022-12-03T01:49:42.439Z,15.10
2022-12-03T01:52:23.144Z,15.20
2022-12-03T01:54:56.907Z,15.20
2022-12-03T01:57:30.193Z,15.10
2022-12-03T01:59:58.977Z,15.10
2022-12-03T02:02:28.866Z,15.10
2022-12-03T02:04:56.717Z,15.10
2022-12-03T02:07:27.233Z,15.10
2022-12-03T02:09:55.537Z,15.10
2022-12-03T02:12:31.743Z,15.10
2022-12-03T02:14:59.516Z,15.10
2022-12-03T02:17:27.036Z,15.10
2022-12-03T02:19:54.889Z,15.10
2022-12-03T02:22:35.490Z,15.10
2022-12-03T02:25:19.134Z,15.10
2022-12-03T02:27:46.181Z,15.10
2022-12-03T02:30:16.122Z,15.10
2022-12-03T02:32:42.877Z,15.10
2022-12-03T02:35:19.760Z,15.20
2022-12-03T02:37:49.386Z,15.10
2022-12-03T02:40:20.275Z,15.20
2022-12-03T02:42:48.030Z,15.10
2022-12-03T02:45:20.116Z,15.20
2022-12-03T02:47:54.605Z,15.20
2022-12-03T02:50:26.389Z,15.10
2022-12-03T02:52:56.102Z,15.10
2022-12-03T02:55:23.685Z,15.10
2022-12-03T02:57:52.050Z,15.10
2022-12-03T03:00:19.903Z,15.10
2022-12-03T03:02:47.206Z,15.20
2022-12-03T03:05:15.539Z,15.20
2022-12-03T03:07:42.663Z,15.20
2022-12-03T03:10:14.145Z,15.30
2022-12-03T03:12:41.154Z,15.30
2022-12-03T03:15:09.336Z,15.30
2022-12-03T03:17:36.120Z,15.30
2022-12-03T03:20:04.343Z,15.30
2022-12-03T03:22:39.611Z,15.40
2022-12-03T03:25:09.366Z,15.40
2022-12-03T03:27:36.869Z,15.40
2022-12-03T03:30:04.704Z,15.40
2022-12-03T03:32:31.510Z,15.40
2022-12-03T03:34:58.476Z,15.40
2022-12-03T03:37:25.788Z,15.40
2022-12-03T03:39:52.499Z,15.50
2022-12-03T03:42:19.299Z,15.50
2022-12-03T03:44:46.533Z,15.50
2022-12-03T03:47:13.923Z,15.50
2022-12-03T03:49:41.573Z,15.50
2022-12-03T03:52:11.512Z,15.50
2022-12-03T03:54:38.979Z,15.50
2022-12-03T03:57:05.934Z,15.50
2022-12-03T03:59:32.758Z,15.50
2022-12-03T04:01:59.415Z,15.50
2022-12-03T04:04:35.130Z,15.50
2022-12-03T04:07:01.903Z,15.50
2022-12-03T04:09:28.589Z,15.50
2022-12-03T04:12:14.205Z,15.50
2022-12-03T04:14:40.844Z,15.40
2022-12-03T04:17:07.485Z,15.40
2022-12-03T04:19:34.121Z,15.40
2022-12-03T04:22:19.439Z,15.50
2022-12-03T04:24:46.110Z,15.40
2022-12-03T04:27:31.238Z,15.40
2022-12-03T04:29:57.914Z,15.40
2022-12-03T04:32:43.193Z,15.40
2022-12-03T04:35:39.275Z,15.40
2022-12-03T04:38:06.045Z,15.40
2022-12-03T04:41:00.732Z,15.40
2022-12-03T04:43:28.555Z,15.50
2022-12-03T04:45:55.340Z,15.50
2022-12-03T04:48:22.097Z,15.50
2022-12-03T04:50:48.948Z,15.50
2022-12-03T04:53:15.660Z,15.50
2022-12-03T04:55:42.337Z,15.50
2022-12-03T04:58:09.881Z,15.50
2022-12-03T05:00:36.617Z,15.50
2022-12-03T05:03:03.413Z,15.50
2022-12-03T05:05:30.238Z,15.50
2022-12-03T05:07:56.943Z,15.50
2022-12-03T05:10:23.706Z,15.50
2022-12-03T05:12:50.374Z,15.60
2022-12-03T05:15:17.138Z,15.60
2022-12-03T05:17:43.828Z,15.60
2022-12-03T05:20:30.610Z,15.60
2022-12-03T05:22:57.347Z,15.60
2022-12-03T05:25:24.119Z,15.60
2022-12-03T05:27:50.788Z,15.60
2022-12-03T05:30:17.670Z,15.60
2022-12-03T05:32:44.334Z,15.60
2022-12-03T05:35:11.352Z,15.60
2022-12-03T05:37:38.069Z,15.60
2022-12-03T05:40:05.567Z,15.60
2022-12-03T05:42:50.828Z,15.60
2022-12-03T05:45:18.584Z,15.60
2022-12-03T05:47:45.257Z,15.60
2022-12-03T05:50:12.145Z,15.70
2022-12-03T05:52:38.870Z,15.70
2022-12-03T05:55:06.477Z,15.60
2022-12-03T05:57:33.248Z,15.60
2022-12-03T06:00:00.024Z,15.60
2022-12-03T06:02:26.780Z,15.60
2022-12-03T06:04:53.710Z,15.60
2022-12-03T06:07:20.660Z,15.70
2022-12-03T06:09:47.355Z,15.60
2022-12-03T06:12:14.127Z,15.60
2022-12-03T06:14:41.013Z,15.60
2022-12-03T06:17:07.796Z,15.60
2022-12-03T06:19:34.659Z,15.70
2022-12-03T06:22:01.436Z,15.70
2022-12-03T06:24:28.347Z,15.70
2022-12-03T06:26:55.027Z,15.70
2022-12-03T06:29:21.711Z,15.70
2022-12-03T06:31:48.400Z,15.70
2022-12-03T06:34:15.050Z,15.70
2022-12-03T06:36:41.739Z,15.70
2022-12-03T06:39:08.517Z,15.70
2022-12-03T06:41:35.213Z,15.70
2022-12-03T06:51:23.239Z,15.70
2022-12-03T06:53:49.929Z,15.90
2022-12-03T06:56:21.392Z,15.90
2022-12-03T06:58:48.960Z,15.90
2022-12-03T07:01:15.725Z,15.90
2022-12-03T07:03:42.431Z,15.90
2022-12-03T07:06:09.194Z,15.90
2022-12-03T07:08:35.912Z,15.90
2022-12-03T07:11:02.579Z,15.90
2022-12-03T07:13:29.293Z,15.90
2022-12-03T07:15:56.109Z,15.90
2022-12-03T07:18:22.911Z,15.90
2022-12-03T07:20:49.608Z,15.90
2022-12-03T07:23:16.357Z,16.00
2022-12-03T07:25:43.014Z,16.00
2022-12-03T07:28:09.721Z,15.90
2022-12-03T07:30:36.369Z,15.90
2022-12-03T07:33:03.119Z,15.90
2022-12-03T07:35:29.848Z,15.90
2022-12-03T07:37:56.588Z,15.90
2022-12-03T07:40:23.339Z,15.90
2022-12-03T07:42:50.000Z,16.00
2022-12-03T07:45:16.720Z,16.00
2022-12-03T07:47:43.482Z,16.00
2022-12-03T07:50:10.617Z,15.90
2022-12-03T07:52:37.379Z,15.80
2022-12-03T07:55:04.316Z,15.80
2022-12-03T07:57:30.942Z,15.80
2022-12-03T07:59:57.670Z,15.80
2022-12-03T08:02:24.429Z,15.80
2022-12-03T08:04:51.297Z,15.80
2022-12-03T08:07:18.100Z,15.80
2022-12-03T08:09:45.065Z,15.80
2022-12-03T08:12:40.138Z,15.80
2022-12-03T08:15:14.285Z,15.80
2022-12-03T08:17:42.432Z,15.80
2022-12-03T08:20:20.878Z,15.80
2022-12-03T08:22:50.760Z,15.80
2022-12-03T08:25:31.865Z,15.80
2022-12-03T08:28:22.991Z,15.80
2022-12-03T08:31:26.867Z,15.90
2022-12-03T08:34:31.695Z,15.90
2022-12-03T08:37:01.167Z,15.80
2022-12-03T08:39:33.662Z,15.80
2022-12-03T08:42:31.008Z,15.90
2022-12-03T08:45:20.039Z,15.90
2022-12-03T08:47:46.751Z,15.90
2022-12-03T08:50:28.254Z,15.60
2022-12-03T08:52:59.696Z,15.40
2022-12-03T08:55:36.351Z,15.20
2022-12-03T08:58:30.898Z,15.00
2022-12-03T09:01:11.106Z,14.90
2022-12-03T09:03:49.495Z,14.80
2022-12-03T09:06:16.299Z,14.70
2022-12-03T09:08:43.053Z,14.70
2022-12-03T09:11:09.745Z,14.70
2022-12-03T09:13:36.421Z,14.70
2022-12-03T09:16:03.191Z,14.70
2022-12-03T09:18:29.894Z,14.70
2022-12-03T09:20:57.097Z,14.70
2022-12-03T09:23:24.016Z,14.60
2022-12-03T09:25:50.723Z,14.60
2022-12-03T09:28:17.389Z,14.70
2022-12-03T09:30:44.143Z,14.60
2022-12-03T09:33:10.858Z,14.60
2022-12-03T09:35:37.595Z,14.60
2022-12-03T09:38:04.252Z,14.70
2022-12-03T09:40:30.966Z,14.60
2022-12-03T09:43:00.914Z,14.50
2022-12-03T09:45:27.654Z,14.50
2022-12-03T09:47:55.147Z,14.30
2022-12-03T09:50:25.112Z,13.90
2022-12-03T09:52:54.850Z,13.50
2022-12-03T09:55:24.389Z,13.00
2022-12-03T09:57:55.500Z,12.60
2022-12-03T10:00:26.009Z,12.60
2022-12-03T10:02:56.394Z,12.60
2022-12-03T10:05:24.037Z,12.70
2022-12-03T10:07:52.292Z,12.80
2022-12-03T10:10:22.563Z,12.90
2022-12-03T10:12:51.944Z,13.00
2022-12-03T10:15:23.101Z,13.10
2022-12-03T10:17:52.540Z,13.10
2022-12-03T10:20:21.326Z,13.20
2022-12-03T10:22:50.855Z,13.20
2022-12-03T10:25:20.807Z,13.30
2022-12-03T10:28:02.356Z,13.30
2022-12-03T10:30:29.862Z,13.40
2022-12-03T10:32:58.549Z,13.40
2022-12-03T10:35:45.474Z,13.50
2022-12-03T10:38:17.943Z,13.50
2022-12-03T10:40:45.771Z,13.50
2022-12-03T10:43:14.001Z,13.50
2022-12-03T10:45:41.683Z,13.50
2022-12-03T10:48:17.005Z,13.50
2022-12-03T10:51:03.661Z,13.50
2022-12-03T10:53:33.479Z,13.50
2022-12-03T10:56:03.139Z,13.40
2022-12-03T10:58:33.929Z,13.40
2022-12-03T11:01:04.051Z,13.40
2022-12-03T11:03:34.785Z,13.40
2022-12-03T11:06:02.439Z,13.40
2022-12-03T11:08:37.292Z,13.40
2022-12-03T11:11:13.294Z,13.40
2022-12-03T11:13:39.968Z,13.40
2022-12-03T11:16:08.303Z,13.30
2022-12-03T11:18:38.140Z,13.20
2022-12-03T11:21:08.774Z,13.00
2022-12-03T11:23:44.386Z,12.90
2022-12-03T11:26:29.419Z,12.80
2022-12-03T11:29:00.306Z,12.70
2022-12-03T11:31:39.521Z,12.70
2022-12-03T11:34:18.446Z,12.60
2022-12-03T11:37:10.284Z,12.50
2022-12-03T11:39:52.952Z,12.50
2022-12-03T11:42:25.976Z,12.50
2022-12-03T11:45:04.765Z,12.50
2022-12-03T11:47:45.191Z,12.60
2022-12-03T11:50:17.952Z,12.60
2022-12-03T11:52:45.968Z,12.60
2022-12-03T11:55:25.083Z,12.80
2022-12-03T11:58:01.352Z,12.90
2022-12-03T12:00:28.429Z,13.00
2022-12-03T12:02:57.602Z,13.10
2022-12-03T12:05:32.594Z,13.10
2022-12-03T12:08:01.724Z,13.20
2022-12-03T12:10:49.649Z,13.30
2022-12-03T12:15:59.960Z,13.50
2022-12-03T12:18:42.833Z,13.60
2022-12-03T12:21:50.785Z,13.70
2022-12-03T12:24:43.581Z,13.70
2022-12-03T12:27:15.587Z,13.60
2022-12-03T12:29:46.335Z,13.60
2022-12-03T12:32:15.889Z,13.60
2022-12-03T12:34:46.271Z,13.70
2022-12-03T12:37:19.606Z,13.70
2022-12-03T12:39:47.983Z,13.70
2022-12-03T12:42:40.078Z,13.70
2022-12-03T12:45:30.010Z,13.70
2022-12-03T12:48:14.855Z,13.80
2022-12-03T12:50:44.212Z,13.80
2022-12-03T12:53:10.811Z,13.80
2022-12-03T12:55:41.246Z,13.80
2022-12-03T12:58:13.917Z,13.80
2022-12-03T13:00:41.220Z,13.80
2022-12-03T13:03:08.630Z,13.70
2022-12-03T13:05:41.376Z,13.70
2022-12-03T13:08:37.438Z,13.70
2022-12-03T13:11:04.263Z,13.70
2022-12-03T13:13:44.263Z,13.70
2022-12-03T13:16:22.864Z,13.70
2022-12-03T13:18:58.006Z,13.70
2022-12-03T13:21:40.745Z,13.60
2022-12-03T13:24:26.765Z,13.50
2022-12-03T13:26:53.434Z,13.50
2022-12-03T13:29:22.711Z,13.50
2022-12-03T13:31:54.578Z,13.60
2022-12-03T13:34:24.049Z,13.60
2022-12-03T13:36:57.418Z,13.70
2022-12-03T13:39:31.964Z,13.70
2022-12-03T13:42:33.711Z,13.70
2022-12-03T13:45:02.840Z,13.70
2022-12-03T13:47:31.903Z,13.70
2022-12-03T13:50:03.695Z,13.80
2022-12-03T13:52:34.085Z,13.90
2022-12-03T13:55:03.880Z,13.90
2022-12-03T13:57:30.536Z,13.50
2022-12-03T13:59:57.475Z,13.10
2022-12-03T14:02:24.456Z,12.70
2022-12-03T14:04:55.358Z,12.30
2022-12-03T14:07:25.439Z,12.00
2022-12-03T14:09:52.557Z,12.00
2022-12-03T14:12:25.735Z,12.10
2022-12-03T14:14:54.107Z,12.30
2022-12-03T14:17:20.942Z,12.40
2022-12-03T14:19:47.707Z,12.60
2022-12-03T14:22:14.437Z,12.70
2022-12-03T14:24:41.188Z,12.90
2022-12-03T14:27:07.901Z,13.10
2022-12-03T14:29:34.662Z,13.30
2022-12-03T14:32:01.677Z,13.40
2022-12-03T14:34:28.368Z,13.40
2022-12-03T14:36:55.053Z,13.40
2022-12-03T14:39:21.812Z,13.30
2022-12-03T14:42:07.210Z,13.40
2022-12-03T14:44:34.042Z,13.50
2022-12-03T14:47:00.772Z,13.50
2022-12-03T14:49:27.555Z,13.60
2022-12-03T14:51:54.309Z,13.60
2022-12-03T14:54:20.998Z,13.60
2022-12-03T14:56:48.012Z,13.60
2022-12-03T14:59:14.702Z,13.60
2022-12-03T15:01:44.306Z,13.50
2022-12-03T15:04:11.032Z,13.60
2022-12-03T15:06:37.703Z,13.70
2022-12-03T15:09:04.855Z,13.70
2022-12-03T15:11:31.955Z,13.70
2022-12-03T15:13:58.773Z,13.70
2022-12-03T15:16:25.478Z,13.80
2022-12-03T15:18:52.270Z,13.80
2022-12-03T15:21:18.945Z,13.80
2022-12-03T15:23:45.577Z,13.80
2022-12-03T15:26:12.241Z,13.80
2022-12-03T15:28:38.942Z,13.80
2022-12-03T15:31:05.790Z,13.70
2022-12-03T15:33:32.461Z,13.80
2022-12-03T15:35:59.403Z,13.80
2022-12-03T15:38:26.254Z,13.90
2022-12-03T15:40:53.000Z,13.90
2022-12-03T15:43:19.797Z,14.00
2022-12-03T15:45:46.729Z,14.00
2022-12-03T15:48:13.817Z,14.00
2022-12-03T15:50:40.905Z,13.90
2022-12-03T15:53:07.745Z,13.90
2022-12-03T15:55:34.403Z,13.90
2022-12-03T15:58:01.061Z,13.90
2022-12-03T16:00:27.814Z,13.90
2022-12-03T16:02:54.544Z,13.90
2022-12-03T16:05:21.349Z,13.90
2022-12-03T16:07:48.150Z,14.00
2022-12-03T16:10:17.508Z,14.00
2022-12-03T16:12:45.283Z,14.00
2022-12-03T16:15:11.997Z,14.00
2022-12-03T16:17:38.698Z,14.00
2022-12-03T16:20:06.663Z,14.00
2022-12-03T16:22:33.325Z,14.00
2022-12-03T16:25:01.071Z,14.00
2022-12-03T16:27:27.728Z,14.10
2022-12-03T16:29:56.205Z,14.10
2022-12-03T16:32:23.878Z,14.10
2022-12-03T16:34:50.634Z,14.10
2022-12-03T16:37:17.322Z,14.20
2022-12-03T16:39:43.966Z,14.20
2022-12-03T16:42:16.943Z,14.20
2022-12-03T16:45:02.862Z,14.30
2022-12-03T16:47:33.860Z,14.30
2022-12-03T16:50:02.222Z,14.20
2022-12-03T16:52:29.018Z,14.20
2022-12-03T16:54:55.684Z,14.10
2022-12-03T16:57:22.347Z,14.10
2022-12-03T16:59:49.000Z,14.10
2022-12-03T17:02:15.738Z,14.10
2022-12-03T17:04:42.417Z,14.10
2022-12-03T17:07:09.100Z,14.10
2022-12-03T17:09:35.787Z,14.10
2022-12-03T17:12:02.528Z,14.10
2022-12-03T17:14:33.203Z,14.10
2022-12-03T17:17:00.442Z,14.10
2022-12-03T17:19:27.195Z,14.10
2022-12-03T17:21:54.202Z,14.10
2022-12-03T17:24:21.593Z,14.20
2022-12-03T17:26:48.396Z,14.20
2022-12-03T17:29:15.123Z,14.20
2022-12-03T17:31:42.757Z,14.20
2022-12-03T17:34:09.950Z,14.30
2022-12-03T17:36:36.738Z,14.30
2022-12-03T17:39:03.601Z,14.30
2022-12-03T17:41:30.260Z,14.30
2022-12-03T17:43:57.037Z,14.30
2022-12-03T17:46:23.877Z,14.30
2022-12-03T17:48:50.620Z,14.20
2022-12-03T17:51:19.203Z,13.90
2022-12-03T17:53:46.053Z,13.80
2022-12-03T17:56:12.807Z,13.80
2022-12-03T17:58:39.477Z,13.90
2022-12-03T18:01:08.507Z,13.90
2022-12-03T18:03:35.207Z,13.90
2022-12-03T18:06:02.477Z,14.00
2022-12-03T18:08:29.351Z,14.00
2022-12-03T18:10:56.182Z,14.10
2022-12-03T18:13:37.886Z,14.10
2022-12-03T18:16:04.909Z,14.20
2022-12-03T18:18:31.669Z,14.20
2022-12-03T18:21:02.127Z,14.20
2022-12-03T18:23:29.174Z,14.30
2022-12-03T18:25:56.715Z,14.30
2022-12-03T18:28:23.818Z,14.30
2022-12-03T18:30:52.719Z,14.40
2022-12-03T18:33:21.331Z,14.50
2022-12-03T18:35:48.223Z,14.40
2022-12-03T18:38:17.154Z,14.40
2022-12-03T18:40:45.390Z,14.40
2022-12-03T18:43:13.179Z,14.40
2022-12-03T18:45:40.381Z,14.40
2022-12-03T18:48:18.254Z,14.40
2022-12-03T18:50:45.619Z,14.40
2022-12-03T18:53:18.396Z,14.40
2022-12-03T18:55:46.882Z,14.40
2022-12-03T18:58:13.576Z,14.50
2022-12-03T19:00:40.629Z,14.50
2022-12-03T19:03:07.551Z,14.50
2022-12-03T19:05:35.401Z,14.50
2022-12-03T19:08:03.689Z,14.50
2022-12-03T19:10:30.565Z,14.50
2022-12-03T19:12:57.373Z,14.50
2022-12-03T19:15:24.211Z,14.60
2022-12-03T19:17:51.453Z,14.60
2022-12-03T19:20:18.274Z,14.60
2022-12-03T19:22:44.984Z,14.60
2022-12-03T19:25:11.687Z,14.60
2022-12-03T19:27:38.435Z,14.60
2022-12-03T19:30:06.774Z,14.60
2022-12-03T19:32:34.806Z,14.60
2022-12-03T19:35:05.053Z,14.60
2022-12-03T19:37:33.667Z,14.70
2022-12-03T19:40:01.052Z,14.70
2022-12-03T19:42:28.086Z,14.70
2022-12-03T19:44:54.916Z,14.70
2022-12-03T19:47:24.555Z,14.70
2022-12-03T19:49:53.406Z,14.80
2022-12-03T19:52:20.430Z,14.80
2022-12-03T19:54:47.183Z,14.80
2022-12-03T19:57:17.923Z,14.80
2022-12-03T19:59:48.282Z,14.80
2022-12-03T20:02:15.103Z,14.80
2022-12-03T20:04:41.897Z,14.80
2022-12-03T20:07:08.640Z,14.80
2022-12-03T20:09:35.427Z,14.80
2022-12-03T20:12:02.087Z,14.80
2022-12-03T20:14:29.267Z,14.80
2022-12-03T20:16:56.004Z,14.80
2022-12-03T20:19:22.838Z,14.70
2022-12-03T20:21:49.514Z,14.70
2022-12-03T20:24:17.625Z,14.70
2022-12-03T20:26:44.606Z,14.70
2022-12-03T20:29:13.128Z,14.70
2022-12-03T20:31:41.014Z,14.80
2022-12-03T20:34:07.799Z,14.70
2022-12-03T20:36:34.654Z,14.70
2022-12-03T20:39:04.507Z,14.80
2022-12-03T20:41:33.996Z,14.80
2022-12-03T20:44:00.633Z,14.80
2022-12-03T20:46:29.785Z,14.80
2022-12-03T20:48:57.494Z,14.70
2022-12-03T20:51:27.622Z,14.70
2022-12-03T20:53:54.392Z,14.70
2022-12-03T20:56:24.871Z,14.70
2022-12-03T20:58:53.199Z,14.70
2022-12-03T21:01:23.173Z,14.70
2022-12-03T21:03:51.386Z,14.70
2022-12-03T21:06:18.537Z,14.80
2022-12-03T21:08:45.977Z,14.80
2022-12-03T21:11:18.165Z,14.70
2022-12-03T21:13:46.518Z,14.70
2022-12-03T21:16:16.309Z,14.70
2022-12-03T21:18:43.434Z,14.70
2022-12-03T21:21:13.149Z,14.70
2022-12-03T21:23:40.282Z,14.70
2022-12-03T21:26:10.365Z,14.70
2022-12-03T21:28:38.999Z,14.70
2022-12-03T21:31:08.970Z,14.70
2022-12-03T21:33:36.313Z,14.70
2022-12-03T21:36:04.858Z,14.70
2022-12-03T21:38:33.075Z,14.70
2022-12-03T21:41:00.734Z,14.70
2022-12-03T21:43:27.547Z,14.60
2022-12-03T21:45:54.527Z,14.70
2022-12-03T21:48:21.943Z,14.70
2022-12-03T21:51:06.544Z,14.70
2022-12-03T21:53:40.520Z,14.70
2022-12-03T21:56:18.786Z,14.70
2022-12-03T21:58:46.371Z,14.70
2022-12-03T22:01:16.453Z,14.70
2022-12-03T22:03:43.464Z,14.70
2022-12-03T22:06:10.839Z,14.70
2022-12-03T22:08:38.098Z,14.80
2022-12-03T22:11:12.946Z,14.80
2022-12-03T22:13:40.497Z,14.80
2022-12-03T22:16:09.729Z,14.80
2022-12-03T22:18:37.246Z,14.80
2022-12-03T22:21:12.236Z,14.80
2022-12-03T22:23:40.390Z,14.70
2022-12-03T22:26:09.073Z,14.70
2022-12-03T22:28:35.666Z,14.70
2022-12-03T22:31:07.615Z,14.70
2022-12-03T22:33:35.049Z,14.70
2022-12-03T22:36:07.647Z,14.70
2022-12-03T22:38:34.794Z,14.70
2022-12-03T22:41:06.385Z,14.70
2022-12-03T22:43:33.161Z,14.70
2022-12-03T22:46:00.076Z,14.70
2022-12-03T22:48:26.772Z,14.60
2022-12-03T22:50:53.520Z,14.60
2022-12-03T22:53:21.204Z,14.60
2022-12-03T22:55:56.810Z,14.60
2022-12-03T22:58:25.581Z,14.60
2022-12-03T23:00:52.619Z,14.60
2022-12-03T23:03:19.749Z,14.60
2022-12-03T23:05:46.741Z,14.50
2022-12-03T23:08:16.852Z,14.50
2022-12-03T23:10:46.811Z,14.60
2022-12-03T23:13:13.939Z,14.60
2022-12-03T23:15:51.542Z,14.50
2022-12-03T23:18:19.313Z,14.50
2022-12-03T23:20:48.970Z,14.60
2022-12-03T23:23:16.202Z,14.60
2022-12-03T23:25:43.596Z,14.60
2022-12-03T23:28:12.490Z,14.60
2022-12-03T23:30:39.809Z,14.60
2022-12-03T23:33:07.079Z,14.60
2022-12-03T23:35:34.318Z,14.60
2022-12-03T23:38:01.183Z,14.60
2022-12-03T23:40:27.990Z,14.60
2022-12-03T23:42:55.048Z,14.60
2022-12-03T23:45:24.191Z,14.70
2022-12-03T23:47:56.559Z,14.70
2022-12-03T23:50:25.408Z,14.70
2022-12-03T23:52:52.149Z,14.60
2022-12-03T23:55:19.054Z,14.70
2022-12-03T23:57:46.123Z,14.70
